createdAt,value
2022-11-15T00:01:19.869Z,6.84
2022-11-15T00:03:26.589Z,6.92
2022-11-15T00:05:28.250Z,6.95
2022-11-15T00:07:53.914Z,6.98
2022-11-15T00:09:51.506Z,7.03
2022-11-15T00:11:53.562Z,7.04
2022-11-15T00:13:58.980Z,7.01
2022-11-15T00:16:02.219Z,6.98
2022-11-15T00:18:04.832Z,7.00
2022-11-15T00:20:06.984Z,6.98
2022-11-15T00:22:08.614Z,7.00
2022-11-15T00:24:10.464Z,7.00
2022-11-15T00:26:16.107Z,7.00
2022-11-15T00:28:17.692Z,7.04
2022-11-15T00:30:19.469Z,7.02
2022-11-15T00:32:21.052Z,6.99
2022-11-15T00:34:22.677Z,6.98
2022-11-15T00:36:24.370Z,6.91
2022-11-15T00:38:26.023Z,6.87
2022-11-15T00:40:27.676Z,6.90
2022-11-15T00:42:32.500Z,6.88
2022-11-15T00:44:34.058Z,6.88
2022-11-15T00:46:35.663Z,6.81
2022-11-15T00:48:37.786Z,6.77
2022-11-15T00:50:39.495Z,6.75
2022-11-15T00:52:41.179Z,6.73
2022-11-15T00:54:42.790Z,6.71
2022-11-15T00:56:44.498Z,6.73
2022-11-15T00:58:46.109Z,6.75
2022-11-15T01:00:47.813Z,6.77
2022-11-15T01:02:49.670Z,6.82
2022-11-15T01:04:51.293Z,6.81
2022-11-15T01:06:52.944Z,6.81
2022-11-15T01:08:54.539Z,6.80
2022-11-15T01:11:04.849Z,6.75
2022-11-15T01:13:06.605Z,6.77
2022-11-15T01:15:08.750Z,6.75
2022-11-15T01:17:10.484Z,6.74
2022-11-15T01:19:12.481Z,6.74
2022-11-15T01:21:17.536Z,6.72
2022-11-15T01:23:19.170Z,6.71
2022-11-15T01:25:21.007Z,6.73
2022-11-15T01:27:22.718Z,6.73
2022-11-15T01:29:24.383Z,6.66
2022-11-15T01:31:26.263Z,6.54
2022-11-15T01:33:29.440Z,6.40
2022-11-15T01:35:31.307Z,6.34
2022-11-15T01:37:33.077Z,6.30
2022-11-15T01:39:34.793Z,6.22
2022-11-15T01:41:36.419Z,6.12
2022-11-15T01:43:38.128Z,6.00
2022-11-15T01:45:39.928Z,5.84
2022-11-15T01:47:51.952Z,5.86
2022-11-15T01:50:40.762Z,5.84
2022-11-15T01:52:52.357Z,5.85
2022-11-15T01:55:31.643Z,5.81
2022-11-15T01:57:48.674Z,5.84
2022-11-15T01:59:50.530Z,5.83
2022-11-15T02:01:52.260Z,5.74
2022-11-15T02:03:59.359Z,5.65
2022-11-15T02:06:01.015Z,5.60
2022-11-15T02:08:03.019Z,5.68
2022-11-15T02:10:08.665Z,5.81
2022-11-15T02:12:11.061Z,5.84
2022-11-15T02:14:15.004Z,5.79
2022-11-15T02:16:28.994Z,5.80
2022-11-15T02:18:39.625Z,5.73
2022-11-15T02:20:46.833Z,5.71
2022-11-15T02:23:19.378Z,5.68
2022-11-15T02:25:35.910Z,5.65
2022-11-15T02:27:49.988Z,5.64
2022-11-15T02:30:26.994Z,5.58
2022-11-15T02:32:39.498Z,5.63
2022-11-15T02:34:57.885Z,5.72
2022-11-15T02:37:30.567Z,5.77
2022-11-15T02:39:39.702Z,5.80
2022-11-15T02:41:48.507Z,5.88
2022-11-15T02:44:00.280Z,5.95
2022-11-15T02:46:18.805Z,5.98
2022-11-15T02:48:22.481Z,6.08
2022-11-15T02:50:27.388Z,6.11
2022-11-15T02:52:29.068Z,6.20
2022-11-15T02:54:32.881Z,6.23
2022-11-15T02:56:34.867Z,6.28
2022-11-15T02:58:50.769Z,6.32
2022-11-15T03:01:04.461Z,6.36
2022-11-15T03:03:29.228Z,6.37
2022-11-15T03:05:52.254Z,6.43
2022-11-15T03:08:02.442Z,6.42
2022-11-15T03:10:10.783Z,6.41
2022-11-15T03:12:36.676Z,6.44
2022-11-15T03:15:04.679Z,6.49
2022-11-15T03:17:25.543Z,6.56
2022-11-15T03:19:35.268Z,6.62
2022-11-15T03:21:38.634Z,6.57
2022-11-15T03:23:41.214Z,6.54
2022-11-15T03:25:47.100Z,6.55
2022-11-15T03:27:53.283Z,6.62
2022-11-15T03:29:59.353Z,6.70
2022-11-15T03:32:05.225Z,6.74
2022-11-15T03:34:09.446Z,6.77
2022-11-15T03:36:11.607Z,6.78
2022-11-15T03:38:21.302Z,6.70
2022-11-15T03:40:29.043Z,6.66
2022-11-15T03:43:01.579Z,6.70
2022-11-15T03:45:11.768Z,6.71
2022-11-15T03:47:34.282Z,6.76
2022-11-15T03:49:37.768Z,6.81
2022-11-15T03:51:39.869Z,6.83
2022-11-15T03:53:42.320Z,6.87
2022-11-15T03:55:44.034Z,6.86
2022-11-15T03:57:46.219Z,6.81
2022-11-15T03:59:47.903Z,6.75
2022-11-15T04:01:49.577Z,6.71
2022-11-15T04:03:51.349Z,6.63
2022-11-15T04:05:52.994Z,6.68
2022-11-15T04:07:54.584Z,6.73
2022-11-15T04:10:06.521Z,6.68
2022-11-15T04:12:08.165Z,6.66
2022-11-15T04:14:09.860Z,6.65
2022-11-15T04:16:11.669Z,6.64
2022-11-15T04:18:13.411Z,6.66
2022-11-15T04:20:38.192Z,6.67
2022-11-15T04:22:58.408Z,6.69
2022-11-15T04:25:00.042Z,6.67
2022-11-15T04:27:02.285Z,6.65
2022-11-15T04:29:22.282Z,6.66
2022-11-15T04:31:24.151Z,6.66
2022-11-15T04:33:26.013Z,6.45
2022-11-15T04:35:28.069Z,6.28
2022-11-15T04:37:29.739Z,6.06
2022-11-15T04:39:31.478Z,5.86
2022-11-15T04:41:33.091Z,5.79
2022-11-15T04:43:34.990Z,5.59
2022-11-15T04:45:36.825Z,5.51
2022-11-15T04:47:38.547Z,5.30
2022-11-15T04:49:40.212Z,5.28
2022-11-15T04:51:41.885Z,5.34
2022-11-15T04:53:43.790Z,5.45
2022-11-15T04:55:47.089Z,5.52
2022-11-15T04:57:48.805Z,5.43
2022-11-15T04:59:50.509Z,5.45
2022-11-15T05:01:52.218Z,5.45
2022-11-15T05:04:29.421Z,5.44
2022-11-15T05:06:31.719Z,5.54
2022-11-15T05:08:33.575Z,5.68
2022-11-15T05:10:35.224Z,5.80
2022-11-15T05:12:37.246Z,5.57
2022-11-15T05:14:38.853Z,5.31
2022-11-15T05:16:40.722Z,5.24
2022-11-15T05:18:42.526Z,5.26
2022-11-15T05:20:44.194Z,5.26
2022-11-15T05:22:45.855Z,5.36
2022-11-15T05:24:47.486Z,5.52
2022-11-15T05:26:49.155Z,5.71
2022-11-15T05:28:57.962Z,5.84
2022-11-15T05:31:03.654Z,6.00
2022-11-15T05:33:05.550Z,6.15
2022-11-15T05:35:08.405Z,6.22
2022-11-15T05:37:10.106Z,6.30
2022-11-15T05:39:11.819Z,6.30
2022-11-15T05:41:14.085Z,6.37
2022-11-15T05:43:15.748Z,6.37
2022-11-15T05:45:21.285Z,6.35
2022-11-15T05:47:27.808Z,6.34
2022-11-15T05:49:33.482Z,6.31
2022-11-15T05:51:35.337Z,6.35
2022-11-15T05:53:37.747Z,6.39
2022-11-15T05:55:40.380Z,6.36
2022-11-15T05:57:42.243Z,6.43
2022-11-15T05:59:44.535Z,6.41
2022-11-15T06:01:46.225Z,6.42
2022-11-15T06:03:48.020Z,6.38
2022-11-15T06:05:49.601Z,6.34
2022-11-15T06:07:51.316Z,6.31
2022-11-15T06:09:52.991Z,6.45
2022-11-15T06:11:54.646Z,6.40
2022-11-15T06:13:57.438Z,6.36
2022-11-15T06:15:59.540Z,6.00
2022-11-15T06:18:01.371Z,5.50
2022-11-15T06:20:03.186Z,5.30
2022-11-15T06:22:04.904Z,4.85
2022-11-15T06:24:06.998Z,4.85
2022-11-15T06:26:08.633Z,4.76
2022-11-15T06:28:10.259Z,4.69
2022-11-15T06:30:11.916Z,4.66
2022-11-15T06:32:13.542Z,4.75
2022-11-15T06:34:15.396Z,4.75
2022-11-15T06:36:18.259Z,4.79
2022-11-15T06:38:20.152Z,4.92
2022-11-15T06:40:21.874Z,5.16
2022-11-15T06:42:23.461Z,5.12
2022-11-15T06:44:25.113Z,5.14
2022-11-15T06:46:26.868Z,5.16
2022-11-15T06:48:29.351Z,5.13
2022-11-15T06:50:31.045Z,5.22
2022-11-15T06:52:33.648Z,5.29
2022-11-15T06:54:35.240Z,5.39
2022-11-15T06:56:36.838Z,5.53
2022-11-15T06:58:38.695Z,5.67
2022-11-15T07:00:40.610Z,5.83
2022-11-15T07:02:42.235Z,5.97
2022-11-15T07:04:43.923Z,6.06
2022-11-15T07:06:48.821Z,6.17
2022-11-15T07:08:50.673Z,6.27
2022-11-15T07:10:53.039Z,6.19
2022-11-15T07:12:55.347Z,5.86
2022-11-15T07:14:57.126Z,5.52
2022-11-15T07:16:58.825Z,5.54
2022-11-15T07:19:00.465Z,5.65
2022-11-15T07:21:07.090Z,5.45
2022-11-15T07:23:08.724Z,5.33
2022-11-15T07:25:10.704Z,5.25
2022-11-15T07:27:12.425Z,5.38
2022-11-15T07:29:14.404Z,5.56
2022-11-15T07:31:16.183Z,5.71
2022-11-15T07:33:17.762Z,5.84
2022-11-15T07:35:19.389Z,6.00
2022-11-15T07:37:21.075Z,6.11
2022-11-15T07:39:22.788Z,6.27
2022-11-15T07:41:24.500Z,6.39
2022-11-15T07:43:28.985Z,6.51
2022-11-15T07:45:30.979Z,6.37
2022-11-15T07:47:32.616Z,6.30
2022-11-15T07:49:34.314Z,6.13
2022-11-15T07:51:35.928Z,6.03
2022-11-15T07:53:37.576Z,6.14
2022-11-15T07:55:41.683Z,6.29
2022-11-15T07:57:43.304Z,6.33
2022-11-15T07:59:44.903Z,5.90
2022-11-15T08:01:46.570Z,5.88
2022-11-15T08:03:48.368Z,5.69
2022-11-15T08:05:53.327Z,5.44
2022-11-15T08:07:57.036Z,5.45
2022-11-15T08:09:59.513Z,5.69
2022-11-15T08:12:01.446Z,5.89
2022-11-15T08:14:03.095Z,6.11
2022-11-15T08:16:06.675Z,5.78
2022-11-15T08:18:12.764Z,5.63
2022-11-15T08:20:14.713Z,5.45
2022-11-15T08:22:16.327Z,5.67
2022-11-15T08:24:17.921Z,5.72
2022-11-15T08:26:19.704Z,5.71
2022-11-15T08:28:22.038Z,5.49
2022-11-15T08:30:24.983Z,5.59
2022-11-15T08:32:26.619Z,5.82
2022-11-15T08:34:28.260Z,6.04
2022-11-15T08:36:34.783Z,6.28
2022-11-15T08:38:43.728Z,6.53
2022-11-15T08:40:45.337Z,6.62
2022-11-15T08:42:48.019Z,6.76
2022-11-15T08:44:49.628Z,6.83
2022-11-15T08:46:51.487Z,6.95
2022-11-15T08:48:53.073Z,7.05
2022-11-15T08:50:56.318Z,6.78
2022-11-15T08:52:58.017Z,6.74
2022-11-15T08:54:59.683Z,6.68
2022-11-15T08:57:01.306Z,6.64
2022-11-15T08:59:02.900Z,6.69
2022-11-15T09:01:05.554Z,6.83
2022-11-15T09:03:08.332Z,6.66
2022-11-15T09:05:09.945Z,6.52
2022-11-15T09:07:12.507Z,6.53
2022-11-15T09:09:14.280Z,6.40
2022-11-15T09:11:17.560Z,6.48
2022-11-15T09:13:19.222Z,6.31
2022-11-15T09:15:20.894Z,6.14
2022-11-15T09:17:25.059Z,6.09
2022-11-15T09:19:27.195Z,5.84
2022-11-15T09:21:30.607Z,5.72
2022-11-15T09:23:32.224Z,5.84
2022-11-15T09:25:34.140Z,5.98
2022-11-15T09:29:55.528Z,6.21
2022-11-15T09:31:57.094Z,6.38
2022-11-15T09:33:58.988Z,6.32
2022-11-15T09:36:09.051Z,6.50
2022-11-15T09:38:10.666Z,6.71
2022-11-15T09:40:18.554Z,6.79
2022-11-15T09:42:36.708Z,6.94
2022-11-15T09:44:51.335Z,7.24
2022-11-15T09:47:01.946Z,7.47
2022-11-15T09:49:04.426Z,7.72
2022-11-15T09:51:10.320Z,7.93
2022-11-15T09:54:13.607Z,8.06
2022-11-15T09:56:17.230Z,7.95
2022-11-15T09:58:37.131Z,8.10
2022-11-15T10:00:49.727Z,8.29
2022-11-15T10:03:13.006Z,8.15
2022-11-15T10:05:19.731Z,8.11
2022-11-15T10:07:34.321Z,8.36
2022-11-15T10:10:04.341Z,8.57
2022-11-15T10:12:07.347Z,8.71
2022-11-15T10:14:24.777Z,8.74
2022-11-15T10:16:53.068Z,8.81
2022-11-15T10:19:15.796Z,8.86
2022-11-15T10:21:21.462Z,8.87
2022-11-15T10:23:24.056Z,8.94
2022-11-15T10:25:28.242Z,9.04
2022-11-15T10:27:30.579Z,9.18
2022-11-15T10:29:32.178Z,9.37
2022-11-15T10:31:33.797Z,9.57
2022-11-15T10:33:40.051Z,9.71
2022-11-15T10:35:42.586Z,9.79
2022-11-15T10:37:44.197Z,9.98
2022-11-15T10:42:19.820Z,10.15
2022-11-15T10:44:23.073Z,10.28
2022-11-15T10:46:45.479Z,10.35
2022-11-15T10:48:47.402Z,10.13
2022-11-15T10:50:50.095Z,10.04
2022-11-15T10:52:51.776Z,9.66
2022-11-15T10:55:05.790Z,9.55
2022-11-15T10:57:16.455Z,9.75
2022-11-15T10:59:38.759Z,10.04
2022-11-15T11:01:47.441Z,10.18
2022-11-15T11:04:08.640Z,10.32
2022-11-15T11:06:18.228Z,10.35
2022-11-15T11:08:24.717Z,10.45
2022-11-15T11:10:50.457Z,10.47
2022-11-15T11:12:48.874Z,10.39
2022-11-15T11:14:50.471Z,10.28
2022-11-15T11:16:56.944Z,10.23
2022-11-15T11:19:24.784Z,10.27
2022-11-15T11:21:48.068Z,9.94
2022-11-15T11:23:53.949Z,9.60
2022-11-15T11:26:26.768Z,9.59
2022-11-15T11:28:41.673Z,9.84
2022-11-15T11:31:11.277Z,10.15
2022-11-15T11:33:23.047Z,9.89
2022-11-15T11:35:49.088Z,9.32
2022-11-15T11:38:11.083Z,9.02
2022-11-15T11:40:40.653Z,8.65
2022-11-15T11:42:49.209Z,8.72
2022-11-15T11:45:24.744Z,8.80
2022-11-15T11:47:34.724Z,8.74
2022-11-15T11:50:02.012Z,8.74
2022-11-15T11:52:09.704Z,8.79
2022-11-15T11:54:20.565Z,9.12
2022-11-15T11:56:36.511Z,9.32
2022-11-15T11:58:41.505Z,9.48
2022-11-15T12:00:53.166Z,9.31
2022-11-15T12:03:15.720Z,9.20
2022-11-15T12:05:43.329Z,9.22
2022-11-15T12:07:46.108Z,9.20
2022-11-15T12:10:03.215Z,9.46
2022-11-15T12:12:13.870Z,9.75
2022-11-15T12:14:53.224Z,9.95
2022-11-15T12:16:54.858Z,9.89
2022-11-15T12:19:01.165Z,9.78
2022-11-15T12:21:28.845Z,9.68
2022-11-15T12:23:34.165Z,9.52
2022-11-15T12:25:36.373Z,9.50
2022-11-15T12:27:51.987Z,9.60
2022-11-15T12:30:17.787Z,9.81
2022-11-15T12:32:32.775Z,9.68
2022-11-15T12:34:41.957Z,9.66
2022-11-15T12:36:46.546Z,9.59
2022-11-15T12:38:56.890Z,9.62
2022-11-15T12:41:18.960Z,9.80
2022-11-15T12:43:20.602Z,10.01
2022-11-15T12:45:37.789Z,10.04
2022-11-15T12:47:39.399Z,9.80
2022-11-15T12:49:40.946Z,9.74
2022-11-15T12:51:48.530Z,9.50
2022-11-15T12:53:50.351Z,9.32
2022-11-15T12:56:04.162Z,9.51
2022-11-15T12:58:29.302Z,9.63
2022-11-15T13:00:40.243Z,9.67
2022-11-15T13:02:46.481Z,9.56
2022-11-15T13:04:48.893Z,9.67
2022-11-15T13:07:08.560Z,9.77
2022-11-15T13:09:28.729Z,9.80
2022-11-15T13:12:09.175Z,9.74
2022-11-15T13:14:36.051Z,9.68
2022-11-15T13:16:38.197Z,9.71
2022-11-15T13:18:41.168Z,9.73
2022-11-15T13:20:45.942Z,9.92
2022-11-15T13:23:00.585Z,9.59
2022-11-15T13:25:02.766Z,9.73
2022-11-15T13:27:13.991Z,9.79
2022-11-15T13:29:20.383Z,9.82
2022-11-15T13:31:44.473Z,9.80
2022-11-15T13:33:46.343Z,9.77
2022-11-15T13:35:56.328Z,9.78
2022-11-15T13:38:04.955Z,9.90
2022-11-15T13:40:31.124Z,10.08
2022-11-15T13:42:32.916Z,10.13
2022-11-15T13:44:34.823Z,10.22
2022-11-15T13:46:36.599Z,10.31
2022-11-15T13:48:38.415Z,10.40
2022-11-15T13:50:40.402Z,10.42
2022-11-15T13:52:44.277Z,10.47
2022-11-15T13:54:52.093Z,10.46
2022-11-15T13:57:02.237Z,10.52
2022-11-15T13:59:11.530Z,10.54
2022-11-15T14:01:20.777Z,10.39
2022-11-15T14:03:27.108Z,10.01
2022-11-15T14:05:28.858Z,9.80
2022-11-15T14:07:30.960Z,9.75
2022-11-15T14:09:34.477Z,9.81
2022-11-15T14:11:36.304Z,9.85
2022-11-15T14:13:38.002Z,9.91
2022-11-15T14:15:40.223Z,9.83
2022-11-15T14:17:47.200Z,9.70
2022-11-15T14:19:52.271Z,9.63
2022-11-15T14:22:16.075Z,9.69
2022-11-15T14:24:22.288Z,9.68
2022-11-15T14:26:28.669Z,9.58
2022-11-15T14:28:37.554Z,9.62
2022-11-15T14:30:44.159Z,9.57
2022-11-15T14:32:50.465Z,8.93
2022-11-15T14:35:03.729Z,8.58
2022-11-15T14:37:05.517Z,8.54
2022-11-15T14:39:07.220Z,8.45
2022-11-15T14:41:19.488Z,8.42
2022-11-15T14:43:21.137Z,8.21
2022-11-15T14:45:23.246Z,8.18
2022-11-15T14:47:24.856Z,8.20
2022-11-15T14:49:26.559Z,8.08
2022-11-15T14:51:28.182Z,7.87
2022-11-15T14:53:29.910Z,7.76
2022-11-15T14:55:37.260Z,7.68
2022-11-15T14:57:38.957Z,7.74
2022-11-15T14:59:40.594Z,7.50
2022-11-15T15:01:42.408Z,7.42
2022-11-15T15:03:45.188Z,7.21
2022-11-15T15:05:47.035Z,7.24
2022-11-15T15:07:49.449Z,7.37
2022-11-15T15:09:51.213Z,7.53
2022-11-15T15:11:55.693Z,7.70
2022-11-15T15:13:59.248Z,7.70
2022-11-15T15:16:00.878Z,7.82
2022-11-15T15:18:03.606Z,7.90
2022-11-15T15:20:05.659Z,8.03
2022-11-15T15:22:09.681Z,8.01
2022-11-15T15:24:17.430Z,8.01
2022-11-15T15:26:19.136Z,7.96
2022-11-15T15:28:20.831Z,8.00
2022-11-15T15:30:28.373Z,8.17
2022-11-15T15:32:30.133Z,8.31
2022-11-15T15:34:31.921Z,8.45
2022-11-15T15:36:33.534Z,8.56
2022-11-15T15:38:35.657Z,8.63
2022-11-15T15:40:37.458Z,8.72
2022-11-15T15:42:39.060Z,8.78
2022-11-15T15:44:40.729Z,8.83
2022-11-15T15:46:42.334Z,8.90
2022-11-15T15:48:44.884Z,8.96
2022-11-15T15:50:46.576Z,8.92
2022-11-15T15:52:48.454Z,8.97
2022-11-15T15:54:50.165Z,8.99
2022-11-15T15:56:56.085Z,9.02
2022-11-15T15:58:58.002Z,9.01
2022-11-15T16:00:59.779Z,8.99
2022-11-15T16:03:01.806Z,8.97
2022-11-15T16:05:03.868Z,8.92
2022-11-15T16:07:05.558Z,8.87
2022-11-15T16:09:15.023Z,8.90
2022-11-15T16:11:18.027Z,8.93
2022-11-15T16:13:19.743Z,8.96
2022-11-15T16:15:22.682Z,8.86
2022-11-15T16:17:32.851Z,8.69
2022-11-15T16:19:35.734Z,8.52
2022-11-15T16:21:37.536Z,8.44
2022-11-15T16:23:40.193Z,8.38
2022-11-15T16:25:43.201Z,8.39
2022-11-15T16:27:46.071Z,8.38
2022-11-15T16:29:48.344Z,8.27
2022-11-15T16:31:49.992Z,8.24
2022-11-15T16:33:51.639Z,8.32
2022-11-15T16:35:53.280Z,8.43
2022-11-15T16:37:55.182Z,8.52
2022-11-15T16:40:00.818Z,8.48
2022-11-15T16:42:03.552Z,8.27
2022-11-15T16:44:05.161Z,7.71
2022-11-15T16:46:20.355Z,7.52
2022-11-15T16:48:28.439Z,7.63
2022-11-15T16:50:32.891Z,7.68
2022-11-15T16:52:34.558Z,7.85
2022-11-15T16:54:38.540Z,8.02
2022-11-15T16:56:40.636Z,8.15
2022-11-15T16:58:53.103Z,8.21
2022-11-15T17:00:58.872Z,8.28
2022-11-15T17:03:00.523Z,8.34
2022-11-15T17:05:07.058Z,8.40
2022-11-15T17:07:11.674Z,8.46
2022-11-15T17:09:24.493Z,8.47
2022-11-15T17:11:26.221Z,8.46
2022-11-15T17:13:27.889Z,8.45
2022-11-15T17:15:29.548Z,8.48
2022-11-15T17:17:31.831Z,8.51
2022-11-15T17:19:33.612Z,8.49
2022-11-15T17:21:35.165Z,8.47
2022-11-15T17:23:36.906Z,8.51
2022-11-15T17:25:38.578Z,8.53
2022-11-15T17:27:40.707Z,8.57
2022-11-15T17:29:42.727Z,8.57
2022-11-15T17:31:44.702Z,8.58
2022-11-15T17:33:46.289Z,8.57
2022-11-15T17:35:58.398Z,8.54
2022-11-15T17:38:00.019Z,8.55
2022-11-15T17:40:01.711Z,8.57
2022-11-15T17:42:03.366Z,8.45
2022-11-15T17:44:05.193Z,8.33
2022-11-15T17:46:13.255Z,8.37
2022-11-15T17:48:14.973Z,8.42
2022-11-15T17:50:18.051Z,8.46
2022-11-15T17:52:19.948Z,8.48
2022-11-15T17:54:21.664Z,8.49
2022-11-15T17:56:24.820Z,8.07
2022-11-15T17:58:26.576Z,7.68
2022-11-15T18:00:28.239Z,7.40
2022-11-15T18:02:30.556Z,7.46
2022-11-15T18:04:32.299Z,7.61
2022-11-15T18:06:35.149Z,7.57
2022-11-15T18:08:37.811Z,7.32
2022-11-15T18:10:39.626Z,7.32
2022-11-15T18:12:41.243Z,7.46
2022-11-15T18:14:43.073Z,7.63
2022-11-15T18:16:44.810Z,7.74
2022-11-15T18:18:46.609Z,7.87
2022-11-15T18:20:48.201Z,7.95
2022-11-15T18:22:53.218Z,8.05
2022-11-15T18:24:54.975Z,8.10
2022-11-15T18:26:57.958Z,8.11
2022-11-15T18:29:04.577Z,8.14
2022-11-15T18:31:16.844Z,8.14
2022-11-15T18:33:19.624Z,8.17
2022-11-15T18:35:21.273Z,8.23
2022-11-15T18:37:22.988Z,8.23
2022-11-15T18:39:24.656Z,8.23
2022-11-15T18:41:29.871Z,8.15
2022-11-15T18:43:31.828Z,8.14
2022-11-15T18:45:36.556Z,8.10
2022-11-15T18:47:38.181Z,8.12
2022-11-15T18:49:39.897Z,8.12
2022-11-15T18:51:44.401Z,8.13
2022-11-15T18:53:46.405Z,8.17
2022-11-15T18:55:48.004Z,8.16
2022-11-15T18:57:49.579Z,8.10
2022-11-15T18:59:51.276Z,8.13
2022-11-15T19:01:53.049Z,8.19
2022-11-15T19:03:56.909Z,8.18
2022-11-15T19:06:29.039Z,8.17
2022-11-15T19:08:42.109Z,8.20
2022-11-15T19:10:43.751Z,8.22
2022-11-15T19:12:47.216Z,8.22
2022-11-15T19:14:48.931Z,8.24
2022-11-15T19:16:52.450Z,8.24
2022-11-15T19:18:58.873Z,8.23
2022-11-15T19:21:04.636Z,8.17
2022-11-15T19:23:06.492Z,8.18
2022-11-15T19:25:08.821Z,8.20
2022-11-15T19:27:10.509Z,8.23
2022-11-15T19:29:12.297Z,8.23
2022-11-15T19:31:15.439Z,8.16
2022-11-15T19:33:17.254Z,8.16
2022-11-15T19:35:18.954Z,8.15
2022-11-15T19:37:20.563Z,8.14
2022-11-15T19:39:22.382Z,8.14
2022-11-15T19:41:25.254Z,8.19
2022-11-15T19:43:27.325Z,8.19
2022-11-15T19:45:29.041Z,8.20
2022-11-15T19:47:30.730Z,8.12
2022-11-15T19:49:32.421Z,8.10
2022-11-15T19:51:34.121Z,8.12
2022-11-15T19:53:36.737Z,8.10
2022-11-15T19:55:38.644Z,7.94
2022-11-15T19:57:40.260Z,7.84
2022-11-15T19:59:41.888Z,7.57
2022-11-15T20:01:43.744Z,7.35
2022-11-15T20:03:46.040Z,7.02
2022-11-15T20:05:47.751Z,6.95
2022-11-15T20:07:49.472Z,6.55
2022-11-15T20:09:51.066Z,6.18
2022-11-15T20:11:52.879Z,5.96
2022-11-15T20:13:59.019Z,6.12
2022-11-15T20:16:00.799Z,6.28
2022-11-15T20:18:02.513Z,6.52
2022-11-15T20:20:04.703Z,6.74
2022-11-15T20:22:06.252Z,6.90
2022-11-15T20:24:08.380Z,7.05
2022-11-15T20:26:10.756Z,7.14
2022-11-15T20:28:26.343Z,7.25
2022-11-15T20:30:28.000Z,7.30
2022-11-15T20:32:31.172Z,7.34
2022-11-15T20:34:32.832Z,7.39
2022-11-15T20:36:34.499Z,7.42
2022-11-15T20:38:36.399Z,7.44
2022-11-15T20:40:39.368Z,7.49
2022-11-15T20:42:41.187Z,7.50
2022-11-15T20:44:42.748Z,7.54
2022-11-15T20:46:44.491Z,7.55
2022-11-15T20:48:46.140Z,7.53
2022-11-15T20:50:48.019Z,7.57
2022-11-15T20:52:49.723Z,7.61
2022-11-15T20:54:51.402Z,7.65
2022-11-15T20:56:53.070Z,7.63
2022-11-15T20:58:56.504Z,7.65
2022-11-15T21:00:58.367Z,7.68
2022-11-15T21:03:00.039Z,7.70
2022-11-15T21:05:02.305Z,7.67
2022-11-15T21:07:04.502Z,7.66
2022-11-15T21:09:24.845Z,7.70
2022-11-15T21:11:44.876Z,7.66
2022-11-15T21:13:46.521Z,7.63
2022-11-15T21:15:48.557Z,7.63
2022-11-15T21:17:50.232Z,7.64
2022-11-15T21:19:51.951Z,7.66
2022-11-15T21:21:53.696Z,7.65
2022-11-15T21:23:55.249Z,7.66
2022-11-15T21:25:56.996Z,7.65
2022-11-15T21:27:58.650Z,7.65
2022-11-15T21:30:00.339Z,7.75
2022-11-15T21:32:06.837Z,7.77
2022-11-15T21:34:08.811Z,7.76
2022-11-15T21:36:10.426Z,7.76
2022-11-15T21:38:12.113Z,7.74
2022-11-15T21:40:13.791Z,7.75
2022-11-15T21:42:15.413Z,7.74
2022-11-15T21:44:17.197Z,7.76
2022-11-15T21:46:18.827Z,7.77
2022-11-15T21:48:20.557Z,7.78
2022-11-15T21:50:22.530Z,7.82
2022-11-15T21:52:28.483Z,7.82
2022-11-15T21:54:30.112Z,7.85
2022-11-15T21:56:32.441Z,7.84
2022-11-15T21:58:34.810Z,7.82
2022-11-15T22:00:55.453Z,7.83
2022-11-15T22:02:57.138Z,7.78
2022-11-15T22:04:58.961Z,7.80
2022-11-15T22:07:00.589Z,7.80
2022-11-15T22:09:03.127Z,7.79
2022-11-15T22:11:04.855Z,7.78
2022-11-15T22:13:06.539Z,7.75
2022-11-15T22:15:08.420Z,7.70
2022-11-15T22:17:13.205Z,7.19
2022-11-15T22:19:15.105Z,6.99
2022-11-15T22:21:17.940Z,6.60
2022-11-15T22:23:19.703Z,6.67
2022-11-15T22:25:21.396Z,6.59
2022-11-15T22:27:23.105Z,6.52
2022-11-15T22:29:24.809Z,6.42
2022-11-15T22:31:26.624Z,6.22
2022-11-15T22:33:30.092Z,6.29
2022-11-15T22:35:31.873Z,6.45
2022-11-15T22:37:33.648Z,6.63
2022-11-15T22:39:35.335Z,6.81
2022-11-15T22:41:37.102Z,6.94
2022-11-15T22:43:38.742Z,6.99
2022-11-15T22:45:50.475Z,7.05
2022-11-15T22:47:52.257Z,6.95
2022-11-15T22:49:53.954Z,6.91
2022-11-15T22:51:55.634Z,6.95
2022-11-15T22:53:57.576Z,6.93
2022-11-15T22:56:01.236Z,6.84
2022-11-15T22:58:02.930Z,6.85
2022-11-15T23:00:11.242Z,6.81
2022-11-15T23:02:12.916Z,6.70
2022-11-15T23:04:14.701Z,6.60
2022-11-15T23:06:16.854Z,6.65
2022-11-15T23:08:19.468Z,6.71
2022-11-15T23:10:39.677Z,6.75
2022-11-15T23:13:00.113Z,6.85
2022-11-15T23:15:01.930Z,7.00
2022-11-15T23:17:03.873Z,7.07
2022-11-15T23:19:08.468Z,7.14
2022-11-15T23:21:14.110Z,7.19
2022-11-15T23:23:15.749Z,7.23
2022-11-15T23:25:17.502Z,7.17
2022-11-15T23:27:20.819Z,7.09
2022-11-15T23:29:24.941Z,7.01
2022-11-15T23:31:45.438Z,6.87
2022-11-15T23:33:59.060Z,6.86
2022-11-15T23:36:00.849Z,6.90
2022-11-15T23:38:02.557Z,6.96
2022-11-15T23:40:05.354Z,7.02
2022-11-15T23:42:09.296Z,7.07
2022-11-15T23:44:11.481Z,7.11
2022-11-15T23:46:13.305Z,6.98
2022-11-15T23:48:14.982Z,7.00
2022-11-15T23:50:17.183Z,7.03
2022-11-15T23:52:19.003Z,6.89
2022-11-15T23:54:20.831Z,6.79
2022-11-15T23:56:23.008Z,6.82
2022-11-15T23:58:24.703Z,6.72
